sensor_id;sensor_type;location;lat;lon;timestamp;temperature;humidity
10453;DHT22;5274;51.992;8.518;2022-11-04T00:01:41;10.40;99.90
10453;DHT22;5274;51.992;8.518;2022-11-04T00:04:07;10.40;99.90
10453;DHT22;5274;51.992;8.518;2022-11-04T00:06:33;10.40;99.90
10453;DHT22;5274;51.992;8.518;2022-11-04T00:08:59;10.40;99.90
10453;DHT22;5274;51.992;8.518;2022-11-04T00:11:25;10.40;99.90
10453;DHT22;5274;51.992;8.518;2022-11-04T00:14:10;10.40;99.90
10453;DHT22;5274;51.992;8.518;2022-11-04T00:16:36;10.40;99.90
10453;DHT22;5274;51.992;8.518;2022-11-04T00:19:20;10.40;99.90
10453;DHT22;5274;51.992;8.518;2022-11-04T00:21:46;10.40;99.90
10453;DHT22;5274;51.992;8.518;2022-11-04T00:24:30;10.50;99.90
10453;DHT22;5274;51.992;8.518;2022-11-04T00:27:16;10.40;99.90
10453;DHT22;5274;51.992;8.518;2022-11-04T00:30:01;10.40;99.90
10453;DHT22;5274;51.992;8.518;2022-11-04T00:32:26;10.40;99.90
10453;DHT22;5274;51.992;8.518;2022-11-04T00:35:24;10.50;99.90
10453;DHT22;5274;51.992;8.518;2022-11-04T00:37:50;10.40;99.90
10453;DHT22;5274;51.992;8.518;2022-11-04T00:40:15;10.50;99.90
10453;DHT22;5274;51.992;8.518;2022-11-04T00:42:43;10.50;99.90
10453;DHT22;5274;51.992;8.518;2022-11-04T00:45:10;10.50;99.90
10453;DHT22;5274;51.992;8.518;2022-11-04T00:47:35;10.60;99.90
10453;DHT22;5274;51.992;8.518;2022-11-04T00:50:01;10.60;99.90
10453;DHT22;5274;51.992;8.518;2022-11-04T00:52:26;10.60;99.90
10453;DHT22;5274;51.992;8.518;2022-11-04T00:54:52;10.60;99.90
10453;DHT22;5274;51.992;8.518;2022-11-04T00:57:17;10.60;99.90
10453;DHT22;5274;51.992;8.518;2022-11-04T00:59:43;10.60;99.90
10453;DHT22;5274;51.992;8.518;2022-11-04T01:02:10;10.60;99.90
10453;DHT22;5274;51.992;8.518;2022-11-04T01:04:36;9.80;99.90
10453;DHT22;5274;51.992;8.518;2022-11-04T01:07:02;10.60;99.90
10453;DHT22;5274;51.992;8.518;2022-11-04T01:09:28;10.60;99.90
10453;DHT22;5274;51.992;8.518;2022-11-04T01:11:53;10.60;99.90
10453;DHT22;5274;51.992;8.518;2022-11-04T01:14:19;10.60;99.90
10453;DHT22;5274;51.992;8.518;2022-11-04T01:16:45;10.60;99.90
10453;DHT22;5274;51.992;8.518;2022-11-04T01:19:11;10.60;95.40
10453;DHT22;5274;51.992;8.518;2022-11-04T01:21:37;10.50;91.00
10453;DHT22;5274;51.992;8.518;2022-11-04T01:24:03;10.50;48.20
10453;DHT22;5274;51.992;8.518;2022-11-04T01:26:29;10.50;37.40
10453;DHT22;5274;51.992;8.518;2022-11-04T01:28:56;10.40;25.10
10453;DHT22;5274;51.992;8.518;2022-11-04T01:31:24;10.50;1.00
10453;DHT22;5274;51.992;8.518;2022-11-04T01:33:51;10.40;1.00
10453;DHT22;5274;51.992;8.518;2022-11-04T01:36:18;10.40;1.00
10453;DHT22;5274;51.992;8.518;2022-11-04T01:38:43;10.40;1.00
10453;DHT22;5274;51.992;8.518;2022-11-04T01:41:22;10.30;1.00
10453;DHT22;5274;51.992;8.518;2022-11-04T01:43:57;10.30;1.00
10453;DHT22;5274;51.992;8.518;2022-11-04T01:46:28;10.20;1.00
10453;DHT22;5274;51.992;8.518;2022-11-04T01:49:02;10.20;1.00
10453;DHT22;5274;51.992;8.518;2022-11-04T01:51:30;10.20;1.00
10453;DHT22;5274;51.992;8.518;2022-11-04T01:53:56;10.20;1.00
10453;DHT22;5274;51.992;8.518;2022-11-04T01:56:22;10.10;1.00
10453;DHT22;5274;51.992;8.518;2022-11-04T01:58:52;10.10;1.00
10453;DHT22;5274;51.992;8.518;2022-11-04T02:01:18;10.10;1.00
10453;DHT22;5274;51.992;8.518;2022-11-04T02:03:48;10.00;1.00
10453;DHT22;5274;51.992;8.518;2022-11-04T02:06:15;9.90;1.00
10453;DHT22;5274;51.992;8.518;2022-11-04T02:08:44;10.00;1.00
10453;DHT22;5274;51.992;8.518;2022-11-04T02:11:10;10.00;1.00
10453;DHT22;5274;51.992;8.518;2022-11-04T02:13:56;9.90;1.00
10453;DHT22;5274;51.992;8.518;2022-11-04T02:16:36;9.90;1.00
10453;DHT22;5274;51.992;8.518;2022-11-04T02:30:42;9.80;1.00
10453;DHT22;5274;51.992;8.518;2022-11-04T02:33:18;9.80;1.00
10453;DHT22;5274;51.992;8.518;2022-11-04T02:35:59;9.80;1.00
10453;DHT22;5274;51.992;8.518;2022-11-04T02:38:52;9.80;1.00
10453;DHT22;5274;51.992;8.518;2022-11-04T02:41:47;9.80;1.00
10453;DHT22;5274;51.992;8.518;2022-11-04T02:44:20;9.80;1.00
10453;DHT22;5274;51.992;8.518;2022-11-04T02:47:02;9.80;1.00
10453;DHT22;5274;51.992;8.518;2022-11-04T02:49:49;9.80;1.00
10453;DHT22;5274;51.992;8.518;2022-11-04T02:52:26;9.80;99.90
10453;DHT22;5274;51.992;8.518;2022-11-04T02:55:33;9.70;99.90
10453;DHT22;5274;51.992;8.518;2022-11-04T02:57:52;9.70;1.00
10453;DHT22;5274;51.992;8.518;2022-11-04T03:00:19;9.60;1.00
10453;DHT22;5274;51.992;8.518;2022-11-04T03:02:54;9.60;1.00
10453;DHT22;5274;51.992;8.518;2022-11-04T03:05:29;9.60;1.00
10453;DHT22;5274;51.992;8.518;2022-11-04T03:08:00;9.50;1.00
10453;DHT22;5274;51.992;8.518;2022-11-04T03:10:33;9.50;1.00
10453;DHT22;5274;51.992;8.518;2022-11-04T03:13:13;9.60;1.00
10453;DHT22;5274;51.992;8.518;2022-11-04T03:15:56;9.60;1.00
10453;DHT22;5274;51.992;8.518;2022-11-04T03:18:42;9.50;1.00
10453;DHT22;5274;51.992;8.518;2022-11-04T03:21:12;9.50;1.00
10453;DHT22;5274;51.992;8.518;2022-11-04T03:23:38;9.50;1.00
10453;DHT22;5274;51.992;8.518;2022-11-04T03:26:38;9.50;1.00
10453;DHT22;5274;51.992;8.518;2022-11-04T03:34:46;9.50;99.90
10453;DHT22;5274;51.992;8.518;2022-11-04T03:37:12;9.50;99.90
10453;DHT22;5274;51.992;8.518;2022-11-04T03:39:37;9.40;1.00
10453;DHT22;5274;51.992;8.518;2022-11-04T03:42:07;9.40;1.00
10453;DHT22;5274;51.992;8.518;2022-11-04T03:44:47;9.30;1.00
10453;DHT22;5274;51.992;8.518;2022-11-04T03:47:13;9.30;1.00
10453;DHT22;5274;51.992;8.518;2022-11-04T03:49:39;9.40;1.00
10453;DHT22;5274;51.992;8.518;2022-11-04T03:52:04;9.40;1.00
10453;DHT22;5274;51.992;8.518;2022-11-04T03:54:30;9.40;1.00
10453;DHT22;5274;51.992;8.518;2022-11-04T04:02:19;9.30;1.00
10453;DHT22;5274;51.992;8.518;2022-11-04T04:04:58;9.30;1.00
10453;DHT22;5274;51.992;8.518;2022-11-04T04:07:37;9.30;1.00
10453;DHT22;5274;51.992;8.518;2022-11-04T04:10:17;8.00;1.00
10453;DHT22;5274;51.992;8.518;2022-11-04T04:15:46;9.30;1.00
10453;DHT22;5274;51.992;8.518;2022-11-04T04:18:16;9.40;1.00
10453;DHT22;5274;51.992;8.518;2022-11-04T04:20:44;9.40;1.00
10453;DHT22;5274;51.992;8.518;2022-11-04T04:23:18;9.40;1.00
10453;DHT22;5274;51.992;8.518;2022-11-04T04:26:06;9.40;1.00
10453;DHT22;5274;51.992;8.518;2022-11-04T04:28:52;9.40;1.00
10453;DHT22;5274;51.992;8.518;2022-11-04T04:31:18;9.30;1.00
10453;DHT22;5274;51.992;8.518;2022-11-04T04:34:03;9.20;1.00
10453;DHT22;5274;51.992;8.518;2022-11-04T04:36:30;9.10;1.00
10453;DHT22;5274;51.992;8.518;2022-11-04T04:38:57;9.00;1.00
10453;DHT22;5274;51.992;8.518;2022-11-04T04:41:42;9.00;1.00
10453;DHT22;5274;51.992;8.518;2022-11-04T04:44:40;8.90;1.00
10453;DHT22;5274;51.992;8.518;2022-11-04T04:47:29;8.90;1.00
10453;DHT22;5274;51.992;8.518;2022-11-04T04:49:57;8.90;1.00
10453;DHT22;5274;51.992;8.518;2022-11-04T04:52:25;9.00;1.00
10453;DHT22;5274;51.992;8.518;2022-11-04T04:54:51;9.00;1.00
10453;DHT22;5274;51.992;8.518;2022-11-04T04:57:17;9.10;99.90
10453;DHT22;5274;51.992;8.518;2022-11-04T04:59:42;9.10;99.90
10453;DHT22;5274;51.992;8.518;2022-11-04T05:02:08;9.10;99.90
10453;DHT22;5274;51.992;8.518;2022-11-04T05:04:33;9.10;99.90
10453;DHT22;5274;51.992;8.518;2022-11-04T05:06:59;9.10;99.90
10453;DHT22;5274;51.992;8.518;2022-11-04T05:09:24;9.20;99.90
10453;DHT22;5274;51.992;8.518;2022-11-04T05:11:50;9.20;99.90
10453;DHT22;5274;51.992;8.518;2022-11-04T05:14:15;9.20;99.90
10453;DHT22;5274;51.992;8.518;2022-11-04T05:16:41;9.20;99.90
10453;DHT22;5274;51.992;8.518;2022-11-04T05:19:06;9.20;99.90
10453;DHT22;5274;51.992;8.518;2022-11-04T05:21:32;9.20;99.90
10453;DHT22;5274;51.992;8.518;2022-11-04T05:23:58;9.20;99.90
10453;DHT22;5274;51.992;8.518;2022-11-04T05:26:23;9.20;99.90
10453;DHT22;5274;51.992;8.518;2022-11-04T05:28:49;9.30;99.90
10453;DHT22;5274;51.992;8.518;2022-11-04T05:31:14;9.30;99.90
10453;DHT22;5274;51.992;8.518;2022-11-04T05:33:40;9.30;99.90
10453;DHT22;5274;51.992;8.518;2022-11-04T05:36:15;9.30;99.90
10453;DHT22;5274;51.992;8.518;2022-11-04T05:38:42;9.30;99.90
10453;DHT22;5274;51.992;8.518;2022-11-04T05:41:09;9.30;99.90
10453;DHT22;5274;51.992;8.518;2022-11-04T05:43:36;9.30;99.90
10453;DHT22;5274;51.992;8.518;2022-11-04T05:46:01;9.30;99.90
10453;DHT22;5274;51.992;8.518;2022-11-04T05:48:27;9.30;99.90
10453;DHT22;5274;51.992;8.518;2022-11-04T05:50:53;9.30;99.90
10453;DHT22;5274;51.992;8.518;2022-11-04T05:53:19;9.30;99.90
10453;DHT22;5274;51.992;8.518;2022-11-04T05:55:44;9.20;99.90
10453;DHT22;5274;51.992;8.518;2022-11-04T05:58:10;9.20;99.90
10453;DHT22;5274;51.992;8.518;2022-11-04T06:00:36;9.20;99.90
10453;DHT22;5274;51.992;8.518;2022-11-04T06:03:01;9.10;99.90
10453;DHT22;5274;51.992;8.518;2022-11-04T06:05:27;9.10;99.90
10453;DHT22;5274;51.992;8.518;2022-11-04T06:07:53;9.10;99.90
10453;DHT22;5274;51.992;8.518;2022-11-04T06:10:19;9.10;99.90
10453;DHT22;5274;51.992;8.518;2022-11-04T06:12:45;9.20;99.90
10453;DHT22;5274;51.992;8.518;2022-11-04T06:15:11;9.20;99.90
10453;DHT22;5274;51.992;8.518;2022-11-04T06:17:36;9.20;1.00
10453;DHT22;5274;51.992;8.518;2022-11-04T06:20:03;9.20;99.90
10453;DHT22;5274;51.992;8.518;2022-11-04T06:22:28;9.20;99.90
10453;DHT22;5274;51.992;8.518;2022-11-04T06:24:54;9.20;1.00
10453;DHT22;5274;51.992;8.518;2022-11-04T06:27:19;9.20;99.90
10453;DHT22;5274;51.992;8.518;2022-11-04T06:29:45;9.20;99.90
10453;DHT22;5274;51.992;8.518;2022-11-04T06:32:14;9.20;99.90
10453;DHT22;5274;51.992;8.518;2022-11-04T06:34:40;9.20;99.90
10453;DHT22;5274;51.992;8.518;2022-11-04T06:37:06;9.20;99.90
10453;DHT22;5274;51.992;8.518;2022-11-04T06:39:32;9.20;99.90
10453;DHT22;5274;51.992;8.518;2022-11-04T06:41:57;9.20;99.90
10453;DHT22;5274;51.992;8.518;2022-11-04T06:44:23;9.20;99.90
10453;DHT22;5274;51.992;8.518;2022-11-04T06:46:49;9.10;1.00
10453;DHT22;5274;51.992;8.518;2022-11-04T06:49:16;9.10;1.00
10453;DHT22;5274;51.992;8.518;2022-11-04T06:51:43;9.00;1.00
10453;DHT22;5274;51.992;8.518;2022-11-04T06:54:08;9.00;1.00
10453;DHT22;5274;51.992;8.518;2022-11-04T06:56:34;9.00;1.00
10453;DHT22;5274;51.992;8.518;2022-11-04T06:59:00;9.00;1.00
10453;DHT22;5274;51.992;8.518;2022-11-04T07:01:28;9.00;1.00
10453;DHT22;5274;51.992;8.518;2022-11-04T07:03:57;9.10;1.00
10453;DHT22;5274;51.992;8.518;2022-11-04T07:06:24;9.10;1.00
10453;DHT22;5274;51.992;8.518;2022-11-04T07:08:51;9.10;1.00
10453;DHT22;5274;51.992;8.518;2022-11-04T07:11:19;9.10;1.00
10453;DHT22;5274;51.992;8.518;2022-11-04T07:13:45;9.10;99.90
10453;DHT22;5274;51.992;8.518;2022-11-04T07:16:11;9.20;1.00
10453;DHT22;5274;51.992;8.518;2022-11-04T07:18:37;9.10;1.00
10453;DHT22;5274;51.992;8.518;2022-11-04T07:21:03;9.20;1.00
10453;DHT22;5274;51.992;8.518;2022-11-04T07:23:29;9.20;1.00
10453;DHT22;5274;51.992;8.518;2022-11-04T07:26:02;9.20;99.90
10453;DHT22;5274;51.992;8.518;2022-11-04T07:28:29;9.20;99.90
10453;DHT22;5274;51.992;8.518;2022-11-04T07:30:56;9.20;1.00
10453;DHT22;5274;51.992;8.518;2022-11-04T07:33:22;9.20;99.90
10453;DHT22;5274;51.992;8.518;2022-11-04T07:35:47;9.20;1.00
10453;DHT22;5274;51.992;8.518;2022-11-04T07:38:13;9.30;99.90
10453;DHT22;5274;51.992;8.518;2022-11-04T07:40:38;9.30;99.90
10453;DHT22;5274;51.992;8.518;2022-11-04T07:43:04;9.30;99.90
10453;DHT22;5274;51.992;8.518;2022-11-04T07:45:29;9.30;99.90
10453;DHT22;5274;51.992;8.518;2022-11-04T07:47:55;9.30;99.90
10453;DHT22;5274;51.992;8.518;2022-11-04T07:50:20;9.30;99.90
10453;DHT22;5274;51.992;8.518;2022-11-04T07:52:46;9.40;99.90
10453;DHT22;5274;51.992;8.518;2022-11-04T07:55:11;9.50;99.90
10453;DHT22;5274;51.992;8.518;2022-11-04T07:57:45;9.60;99.90
10453;DHT22;5274;51.992;8.518;2022-11-04T08:00:11;9.70;74.00
10453;DHT22;5274;51.992;8.518;2022-11-04T08:02:39;9.80;26.90
10453;DHT22;5274;51.992;8.518;2022-11-04T08:05:05;10.00;1.00
10453;DHT22;5274;51.992;8.518;2022-11-04T08:07:31;9.90;1.00
10453;DHT22;5274;51.992;8.518;2022-11-04T08:09:56;10.00;1.00
10453;DHT22;5274;51.992;8.518;2022-11-04T08:12:22;10.00;1.00
10453;DHT22;5274;51.992;8.518;2022-11-04T08:14:49;10.10;1.00
10453;DHT22;5274;51.992;8.518;2022-11-04T08:17:15;10.10;1.00
10453;DHT22;5274;51.992;8.518;2022-11-04T08:19:40;10.20;99.90
10453;DHT22;5274;51.992;8.518;2022-11-04T08:22:06;10.20;99.90
10453;DHT22;5274;51.992;8.518;2022-11-04T08:24:32;10.20;99.90
10453;DHT22;5274;51.992;8.518;2022-11-04T08:26:58;10.30;99.90
10453;DHT22;5274;51.992;8.518;2022-11-04T08:29:24;10.20;99.90
10453;DHT22;5274;51.992;8.518;2022-11-04T08:31:49;10.20;1.00
10453;DHT22;5274;51.992;8.518;2022-11-04T08:34:15;10.20;1.00
10453;DHT22;5274;51.992;8.518;2022-11-04T08:36:43;10.20;1.00
10453;DHT22;5274;51.992;8.518;2022-11-04T08:39:09;10.30;1.00
10453;DHT22;5274;51.992;8.518;2022-11-04T08:41:35;10.40;99.90
10453;DHT22;5274;51.992;8.518;2022-11-04T08:44:02;10.50;1.00
10453;DHT22;5274;51.992;8.518;2022-11-04T08:46:31;10.40;95.50
10453;DHT22;5274;51.992;8.518;2022-11-04T08:48:57;10.40;99.90
10453;DHT22;5274;51.992;8.518;2022-11-04T08:51:25;10.30;99.90
10453;DHT22;5274;51.992;8.518;2022-11-04T08:53:51;10.30;1.00
10453;DHT22;5274;51.992;8.518;2022-11-04T08:56:25;10.30;1.00
10453;DHT22;5274;51.992;8.518;2022-11-04T08:58:52;10.50;1.00
10453;DHT22;5274;51.992;8.518;2022-11-04T09:01:18;10.50;3.40
10453;DHT22;5274;51.992;8.518;2022-11-04T09:03:45;10.60;99.90
10453;DHT22;5274;51.992;8.518;2022-11-04T09:06:14;10.50;1.00
10453;DHT22;5274;51.992;8.518;2022-11-04T09:08:40;10.50;1.00
10453;DHT22;5274;51.992;8.518;2022-11-04T09:11:09;10.60;99.90
10453;DHT22;5274;51.992;8.518;2022-11-04T09:13:35;10.50;99.90
10453;DHT22;5274;51.992;8.518;2022-11-04T09:16:01;10.60;58.50
10453;DHT22;5274;51.992;8.518;2022-11-04T09:18:27;10.70;1.00
10453;DHT22;5274;51.992;8.518;2022-11-04T09:20:52;10.60;1.00
10453;DHT22;5274;51.992;8.518;2022-11-04T09:23:18;10.60;1.00
10453;DHT22;5274;51.992;8.518;2022-11-04T09:25:43;10.60;99.90
10453;DHT22;5274;51.992;8.518;2022-11-04T09:28:09;10.60;1.00
10453;DHT22;5274;51.992;8.518;2022-11-04T09:30:36;10.60;1.00
10453;DHT22;5274;51.992;8.518;2022-11-04T09:33:01;10.70;99.90
10453;DHT22;5274;51.992;8.518;2022-11-04T09:35:27;10.70;1.00
10453;DHT22;5274;51.992;8.518;2022-11-04T09:37:53;10.80;99.90
10453;DHT22;5274;51.992;8.518;2022-11-04T09:40:21;10.80;99.90
10453;DHT22;5274;51.992;8.518;2022-11-04T09:45:42;10.80;99.90
10453;DHT22;5274;51.992;8.518;2022-11-04T09:48:17;10.90;99.90
10453;DHT22;5274;51.992;8.518;2022-11-04T09:50:51;11.10;1.00
10453;DHT22;5274;51.992;8.518;2022-11-04T09:53:41;11.30;99.90
10453;DHT22;5274;51.992;8.518;2022-11-04T09:56:17;11.20;73.40
10453;DHT22;5274;51.992;8.518;2022-11-04T09:58:44;11.20;1.00
10453;DHT22;5274;51.992;8.518;2022-11-04T10:01:20;11.40;1.00
10453;DHT22;5274;51.992;8.518;2022-11-04T10:06:58;11.40;1.00
10453;DHT22;5274;51.992;8.518;2022-11-04T10:12:14;11.40;99.90
10453;DHT22;5274;51.992;8.518;2022-11-04T10:23:37;11.10;76.40
10453;DHT22;5274;51.992;8.518;2022-11-04T10:27:11;11.20;99.90
10453;DHT22;5274;51.992;8.518;2022-11-04T10:29:08;11.50;90.70
10453;DHT22;5274;51.992;8.518;2022-11-04T10:31:37;11.70;1.00
10453;DHT22;5274;51.992;8.518;2022-11-04T10:34:14;11.70;1.00
10453;DHT22;5274;51.992;8.518;2022-11-04T10:36:42;11.60;99.90
10453;DHT22;5274;51.992;8.518;2022-11-04T10:39:27;11.60;99.90
10453;DHT22;5274;51.992;8.518;2022-11-04T10:41:54;11.40;1.00
10453;DHT22;5274;51.992;8.518;2022-11-04T10:44:25;11.40;1.00
10453;DHT22;5274;51.992;8.518;2022-11-04T10:52:08;11.50;1.00
10453;DHT22;5274;51.992;8.518;2022-11-04T10:54:45;11.60;1.00
10453;DHT22;5274;51.992;8.518;2022-11-04T10:57:16;11.60;99.90
10453;DHT22;5274;51.992;8.518;2022-11-04T11:05:28;11.70;99.90
10453;DHT22;5274;51.992;8.518;2022-11-04T11:07:56;11.80;1.00
10453;DHT22;5274;51.992;8.518;2022-11-04T11:10:28;11.90;1.00
10453;DHT22;5274;51.992;8.518;2022-11-04T11:13:03;11.90;99.90
10453;DHT22;5274;51.992;8.518;2022-11-04T11:15:33;12.40;1.00
10453;DHT22;5274;51.992;8.518;2022-11-04T11:18:14;13.20;8.90
10453;DHT22;5274;51.992;8.518;2022-11-04T11:20:44;14.90;1.00
10453;DHT22;5274;51.992;8.518;2022-11-04T11:23:32;14.40;1.00
10453;DHT22;5274;51.992;8.518;2022-11-04T11:25:58;14.20;99.90
10453;DHT22;5274;51.992;8.518;2022-11-04T11:28:25;13.40;39.50
10453;DHT22;5274;51.992;8.518;2022-11-04T11:30:55;13.30;1.00
10453;DHT22;5274;51.992;8.518;2022-11-04T11:33:33;13.40;1.00
10453;DHT22;5274;51.992;8.518;2022-11-04T11:36:09;13.60;1.00
10453;DHT22;5274;51.992;8.518;2022-11-04T11:38:52;14.40;99.90
10453;DHT22;5274;51.992;8.518;2022-11-04T11:41:19;15.00;1.00
10453;DHT22;5274;51.992;8.518;2022-11-04T11:43:52;15.20;1.00
10453;DHT22;5274;51.992;8.518;2022-11-04T11:48:53;16.30;1.00
10453;DHT22;5274;51.992;8.518;2022-11-04T11:51:24;15.50;99.90
10453;DHT22;5274;51.992;8.518;2022-11-04T11:54:12;15.20;1.00
10453;DHT22;5274;51.992;8.518;2022-11-04T11:56:41;15.40;99.90
10453;DHT22;5274;51.992;8.518;2022-11-04T11:59:24;15.20;99.90
10453;DHT22;5274;51.992;8.518;2022-11-04T12:04:22;14.80;1.00
10453;DHT22;5274;51.992;8.518;2022-11-04T12:10:07;14.00;1.00
10453;DHT22;5274;51.992;8.518;2022-11-04T12:28:35;12.70;99.90
10453;DHT22;5274;51.992;8.518;2022-11-04T12:39:53;12.50;99.90
10453;DHT22;5274;51.992;8.518;2022-11-04T12:42:45;13.00;1.00
10453;DHT22;5274;51.992;8.518;2022-11-04T12:45:42;16.10;99.90
10453;DHT22;5274;51.992;8.518;2022-11-04T12:51:17;14.70;1.00
10453;DHT22;5274;51.992;8.518;2022-11-04T12:54:16;14.00;99.90
10453;DHT22;5274;51.992;8.518;2022-11-04T12:56:44;13.70;99.90
10453;DHT22;5274;51.992;8.518;2022-11-04T13:01:49;13.10;99.90
10453;DHT22;5274;51.992;8.518;2022-11-04T13:04:20;12.90;99.90
10453;DHT22;5274;51.992;8.518;2022-11-04T13:06:53;12.90;99.90
10453;DHT22;5274;51.992;8.518;2022-11-04T13:09:30;12.60;99.90
10453;DHT22;5274;51.992;8.518;2022-11-04T13:12:20;12.60;99.90
10453;DHT22;5274;51.992;8.518;2022-11-04T13:15:00;12.90;99.90
10453;DHT22;5274;51.992;8.518;2022-11-04T13:17:31;12.90;99.90
10453;DHT22;5274;51.992;8.518;2022-11-04T13:20:02;12.80;99.90
10453;DHT22;5274;51.992;8.518;2022-11-04T13:22:32;12.70;99.90
10453;DHT22;5274;51.992;8.518;2022-11-04T13:25:28;12.80;99.90
10453;DHT22;5274;51.992;8.518;2022-11-04T13:27:54;12.60;99.90
10453;DHT22;5274;51.992;8.518;2022-11-04T13:33:06;12.70;99.90
10453;DHT22;5274;51.992;8.518;2022-11-04T13:38:23;12.70;99.90
10453;DHT22;5274;51.992;8.518;2022-11-04T13:43:34;13.00;53.40
10453;DHT22;5274;51.992;8.518;2022-11-04T13:46:15;13.10;99.90
10453;DHT22;5274;51.992;8.518;2022-11-04T13:49:05;13.10;5.60
10453;DHT22;5274;51.992;8.518;2022-11-04T13:51:45;13.40;86.70
10453;DHT22;5274;51.992;8.518;2022-11-04T13:54:27;13.70;75.70
10453;DHT22;5274;51.992;8.518;2022-11-04T13:57:29;13.70;36.90
10453;DHT22;5274;51.992;8.518;2022-11-04T14:02:47;14.00;62.10
10453;DHT22;5274;51.992;8.518;2022-11-04T14:10:43;14.10;99.80
10453;DHT22;5274;51.992;8.518;2022-11-04T14:18:40;13.90;90.60
10453;DHT22;5274;51.992;8.518;2022-11-04T14:21:12;14.10;99.90
10453;DHT22;5274;51.992;8.518;2022-11-04T14:23:46;14.00;99.90
10453;DHT22;5274;51.992;8.518;2022-11-04T14:26:16;14.10;99.90
10453;DHT22;5274;51.992;8.518;2022-11-04T14:28:48;13.90;79.30
10453;DHT22;5274;51.992;8.518;2022-11-04T14:31:39;13.70;95.50
10453;DHT22;5274;51.992;8.518;2022-11-04T14:34:06;13.60;99.90
10453;DHT22;5274;51.992;8.518;2022-11-04T14:36:39;13.50;97.90
10453;DHT22;5274;51.992;8.518;2022-11-04T14:41:59;13.70;99.90
10453;DHT22;5274;51.992;8.518;2022-11-04T14:44:31;13.60;99.90
10453;DHT22;5274;51.992;8.518;2022-11-04T14:47:05;13.60;99.90
10453;DHT22;5274;51.992;8.518;2022-11-04T14:49:35;13.50;99.90
10453;DHT22;5274;51.992;8.518;2022-11-04T14:52:03;13.20;99.90
10453;DHT22;5274;51.992;8.518;2022-11-04T14:54:31;13.00;99.90
10453;DHT22;5274;51.992;8.518;2022-11-04T14:57:13;12.80;87.00
10453;DHT22;5274;51.992;8.518;2022-11-04T14:59:39;12.50;84.10
10453;DHT22;5274;51.992;8.518;2022-11-04T15:02:12;12.60;36.30
10453;DHT22;5274;51.992;8.518;2022-11-04T15:04:47;12.60;1.00
10453;DHT22;5274;51.992;8.518;2022-11-04T15:07:33;12.70;1.00
10453;DHT22;5274;51.992;8.518;2022-11-04T15:09:59;12.50;3.60
10453;DHT22;5274;51.992;8.518;2022-11-04T15:12:26;12.30;13.00
10453;DHT22;5274;51.992;8.518;2022-11-04T15:15:40;12.30;53.40
10453;DHT22;5274;51.992;8.518;2022-11-04T15:18:14;12.10;99.90
10453;DHT22;5274;51.992;8.518;2022-11-04T15:20:47;12.00;99.90
10453;DHT22;5274;51.992;8.518;2022-11-04T15:23:16;11.80;99.90
10453;DHT22;5274;51.992;8.518;2022-11-04T15:25:49;11.80;99.90
10453;DHT22;5274;51.992;8.518;2022-11-04T15:28:37;11.80;99.90
10453;DHT22;5274;51.992;8.518;2022-11-04T15:33:44;11.90;99.90
10453;DHT22;5274;51.992;8.518;2022-11-04T15:36:15;11.90;99.90
10453;DHT22;5274;51.992;8.518;2022-11-04T15:38:46;11.90;99.90
10453;DHT22;5274;51.992;8.518;2022-11-04T15:41:14;11.80;99.90
10453;DHT22;5274;51.992;8.518;2022-11-04T15:44:01;11.80;99.90
10453;DHT22;5274;51.992;8.518;2022-11-04T15:46:27;11.80;99.90
10453;DHT22;5274;51.992;8.518;2022-11-04T15:49:02;11.70;99.90
10453;DHT22;5274;51.992;8.518;2022-11-04T15:51:30;11.70;99.90
10453;DHT22;5274;51.992;8.518;2022-11-04T15:54:04;11.60;99.90
10453;DHT22;5274;51.992;8.518;2022-11-04T15:56:39;11.60;1.00
10453;DHT22;5274;51.992;8.518;2022-11-04T15:59:10;11.60;1.00
10453;DHT22;5274;51.992;8.518;2022-11-04T16:01:50;11.50;1.00
10453;DHT22;5274;51.992;8.518;2022-11-04T16:04:17;11.50;1.00
10453;DHT22;5274;51.992;8.518;2022-11-04T16:06:44;11.50;1.00
10453;DHT22;5274;51.992;8.518;2022-11-04T16:09:26;11.40;1.00
10453;DHT22;5274;51.992;8.518;2022-11-04T16:12:15;11.40;1.00
10453;DHT22;5274;51.992;8.518;2022-11-04T16:14:48;11.40;99.90
10453;DHT22;5274;51.992;8.518;2022-11-04T16:17:14;11.40;99.90
10453;DHT22;5274;51.992;8.518;2022-11-04T16:19:44;11.30;99.90
10453;DHT22;5274;51.992;8.518;2022-11-04T16:22:10;11.30;99.90
10453;DHT22;5274;51.992;8.518;2022-11-04T16:24:46;11.20;99.90
10453;DHT22;5274;51.992;8.518;2022-11-04T16:27:16;11.20;99.90
10453;DHT22;5274;51.992;8.518;2022-11-04T16:29:43;11.10;1.00
10453;DHT22;5274;51.992;8.518;2022-11-04T16:32:28;11.10;1.00
10453;DHT22;5274;51.992;8.518;2022-11-04T16:34:58;11.10;1.00
10453;DHT22;5274;51.992;8.518;2022-11-04T16:37:25;11.10;99.90
10453;DHT22;5274;51.992;8.518;2022-11-04T16:39:52;11.10;99.90
10453;DHT22;5274;51.992;8.518;2022-11-04T16:42:17;11.10;1.00
10453;DHT22;5274;51.992;8.518;2022-11-04T16:44:48;11.10;99.90
10453;DHT22;5274;51.992;8.518;2022-11-04T16:47:15;11.10;99.90
10453;DHT22;5274;51.992;8.518;2022-11-04T16:49:42;11.10;1.00
10453;DHT22;5274;51.992;8.518;2022-11-04T16:52:14;11.10;1.00
10453;DHT22;5274;51.992;8.518;2022-11-04T16:54:44;11.00;1.00
10453;DHT22;5274;51.992;8.518;2022-11-04T16:57:12;11.00;54.30
10453;DHT22;5274;51.992;8.518;2022-11-04T16:59:38;10.90;1.00
10453;DHT22;5274;51.992;8.518;2022-11-04T17:02:28;10.80;1.00
10453;DHT22;5274;51.992;8.518;2022-11-04T17:05:02;10.70;1.00
10453;DHT22;5274;51.992;8.518;2022-11-04T17:07:28;10.60;99.90
10453;DHT22;5274;51.992;8.518;2022-11-04T17:09:54;10.60;1.00
10453;DHT22;5274;51.992;8.518;2022-11-04T17:12:19;10.60;99.90
10453;DHT22;5274;51.992;8.518;2022-11-04T17:14:45;10.50;99.90
10453;DHT22;5274;51.992;8.518;2022-11-04T17:17:10;10.50;99.90
10453;DHT22;5274;51.992;8.518;2022-11-04T17:19:36;10.40;1.00
10453;DHT22;5274;51.992;8.518;2022-11-04T17:22:05;10.50;1.00
10453;DHT22;5274;51.992;8.518;2022-11-04T17:24:31;10.40;92.50
10453;DHT22;5274;51.992;8.518;2022-11-04T17:26:57;10.40;99.90
10453;DHT22;5274;51.992;8.518;2022-11-04T17:29:23;10.40;99.90
10453;DHT22;5274;51.992;8.518;2022-11-04T17:31:48;10.30;99.90
10453;DHT22;5274;51.992;8.518;2022-11-04T17:34:14;10.20;1.00
10453;DHT22;5274;51.992;8.518;2022-11-04T17:36:39;10.10;99.90
10453;DHT22;5274;51.992;8.518;2022-11-04T17:39:05;10.10;1.00
10453;DHT22;5274;51.992;8.518;2022-11-04T17:41:31;10.00;1.00
10453;DHT22;5274;51.992;8.518;2022-11-04T17:44:15;10.00;1.00
10453;DHT22;5274;51.992;8.518;2022-11-04T17:46:40;9.80;99.90
10453;DHT22;5274;51.992;8.518;2022-11-04T17:51:38;9.60;1.00
10453;DHT22;5274;51.992;8.518;2022-11-04T17:54:04;9.60;1.00
10453;DHT22;5274;51.992;8.518;2022-11-04T17:56:30;9.60;1.00
10453;DHT22;5274;51.992;8.518;2022-11-04T17:59:00;9.50;99.90
10453;DHT22;5274;51.992;8.518;2022-11-04T18:01:26;9.50;1.00
10453;DHT22;5274;51.992;8.518;2022-11-04T18:03:53;9.50;1.00
10453;DHT22;5274;51.992;8.518;2022-11-04T18:06:21;9.40;1.00
10453;DHT22;5274;51.992;8.518;2022-11-04T18:08:47;9.40;99.90
10453;DHT22;5274;51.992;8.518;2022-11-04T18:11:13;9.40;99.90
10453;DHT22;5274;51.992;8.518;2022-11-04T18:13:59;9.40;1.00
10453;DHT22;5274;51.992;8.518;2022-11-04T18:16:25;9.30;1.00
10453;DHT22;5274;51.992;8.518;2022-11-04T18:18:50;9.20;1.00
10453;DHT22;5274;51.992;8.518;2022-11-04T18:21:16;9.10;1.00
10453;DHT22;5274;51.992;8.518;2022-11-04T18:23:41;9.10;1.00
10453;DHT22;5274;51.992;8.518;2022-11-04T18:26:08;9.00;1.00